Time;durP1;ratioP1;P1;durP2;ratioP2;P2;SDS_P1;SDS_P2;PMS_P1;PMS_P2;Temp;Humidity;BMP_temperature;BMP_pressure;BME280_temperature;BME280_humidity;BME280_pressure;Samples;Min_cycle;Max_cycle;Signal;HPM_P1;HPM_P2
2023/03/06 00:00:40;;;;;;;1999.90;999.90;;;4.30;99.90;;;;;;5092985;28;20456;-66
2023/03/06 00:03:08;;;;;;;1999.90;999.90;;;4.30;99.90;;;;;;5091323;28;20480;-65
2023/03/06 00:05:34;;;;;;;1999.90;999.90;;;4.40;99.90;;;;;;5092782;28;20446;-67
2023/03/06 00:08:01;;;;;;;1999.90;999.90;;;4.30;99.90;;;;;;5092739;28;20444;-66
2023/03/06 00:10:30;;;;;;;1999.90;999.90;;;4.30;99.90;;;;;;5092964;28;20443;-67
2023/03/06 00:13:00;;;;;;;1999.90;999.90;;;4.30;99.90;;;;;;5091585;28;20974;-66
2023/03/06 00:15:28;;;;;;;1999.90;999.90;;;4.30;99.90;;;;;;5093000;28;20450;-66
2023/03/06 00:17:56;;;;;;;1999.90;999.90;;;4.30;99.90;;;;;;5092715;28;20489;-66
2023/03/06 00:20:24;;;;;;;1999.90;999.90;;;4.40;99.90;;;;;;5092889;28;20454;-67
2023/03/06 00:22:51;;;;;;;1999.90;999.90;;;4.30;99.90;;;;;;5091599;28;20442;-66
2023/03/06 00:25:21;;;;;;;1999.90;999.90;;;4.20;99.90;;;;;;5092544;28;20453;-66
2023/03/06 00:27:48;;;;;;;1999.90;999.90;;;4.20;99.90;;;;;;5092750;28;20457;-66
2023/03/06 00:30:18;;;;;;;1999.90;999.90;;;4.20;99.90;;;;;;5092162;28;20452;-66
2023/03/06 00:32:46;;;;;;;1999.90;999.90;;;4.20;99.90;;;;;;5091283;28;20458;-66
2023/03/06 00:35:14;;;;;;;1999.90;999.90;;;4.20;99.90;;;;;;5092464;28;20458;-66
2023/03/06 00:37:41;;;;;;;1999.90;999.90;;;4.20;99.90;;;;;;5092826;28;20477;-66
2023/03/06 00:40:10;;;;;;;1999.90;999.90;;;4.20;99.90;;;;;;5092004;28;20446;-66
2023/03/06 00:42:37;;;;;;;1999.90;999.90;;;4.10;99.90;;;;;;5090196;28;20447;-66
2023/03/06 00:45:05;;;;;;;1999.90;999.90;;;4.10;99.90;;;;;;5091992;28;20481;-67
2023/03/06 00:47:33;;;;;;;1999.90;999.90;;;4.10;99.90;;;;;;5091892;28;20825;-66
2023/03/06 00:50:00;;;;;;;1999.90;999.90;;;4.10;99.90;;;;;;5092276;28;20826;-67
2023/03/06 00:52:26;;;;;;;1999.90;999.90;;;4.20;99.90;;;;;;5090639;28;20453;-67
2023/03/06 00:54:53;;;;;;;1999.90;999.90;;;4.10;99.90;;;;;;5091858;28;20833;-67
2023/03/06 00:57:20;;;;;;;1999.90;999.90;;;4.10;99.90;;;;;;5092090;28;20474;-67
2023/03/06 00:59:47;;;;;;;1999.90;999.90;;;4.10;99.90;;;;;;5092369;28;20453;-66
2023/03/06 01:02:14;;;;;;;1999.90;999.90;;;4.10;99.90;;;;;;5092020;28;20450;-67
2023/03/06 01:04:42;;;;;;;1999.90;999.90;;;4.10;99.90;;;;;;5091129;28;20466;-67
2023/03/06 01:07:09;;;;;;;1999.90;999.90;;;4.10;99.90;;;;;;5091963;28;20441;-67
2023/03/06 01:09:36;;;;;;;1999.90;999.90;;;4.10;99.90;;;;;;5091481;28;20507;-68
2023/03/06 01:12:02;;;;;;;1999.90;999.90;;;4.20;99.90;;;;;;5092013;28;20450;-67
2023/03/06 01:14:30;;;;;;;1999.90;999.90;;;4.10;99.90;;;;;;5090323;28;20490;-67
2023/03/06 01:16:58;;;;;;;1999.90;999.90;;;4.10;99.90;;;;;;5091423;28;20549;-66
2023/03/06 01:19:24;;;;;;;1999.90;999.90;;;4.10;99.90;;;;;;5091362;28;20818;-67
2023/03/06 01:21:52;;;;;;;1999.90;999.90;;;4.00;99.90;;;;;;5091116;28;20450;-67
2023/03/06 01:24:19;;;;;;;1999.90;999.90;;;4.00;99.90;;;;;;5089877;28;20481;-67
2023/03/06 01:26:46;;;;;;;1999.90;999.90;;;4.00;99.90;;;;;;5090530;28;20450;-67
2023/03/06 01:29:13;;;;;;;1999.90;999.90;;;4.00;99.90;;;;;;5091441;28;20446;-66
2023/03/06 01:31:39;;;;;;;1999.90;999.90;;;4.00;99.90;;;;;;5090851;28;20438;-67
2023/03/06 01:34:06;;;;;;;1999.90;999.90;;;4.10;99.90;;;;;;5089844;28;20462;-67
2023/03/06 01:36:33;;;;;;;1999.90;999.90;;;4.00;99.90;;;;;;5090990;28;20456;-67
2023/03/06 01:39:02;;;;;;;1999.90;999.90;;;4.00;99.90;;;;;;5090663;28;20517;-67
2023/03/06 01:41:31;;;;;;;1999.90;999.90;;;4.10;99.90;;;;;;5090918;28;20455;-67
2023/03/06 01:43:58;;;;;;;1999.90;999.90;;;4.10;99.90;;;;;;5089162;28;20561;-67
2023/03/06 01:46:30;;;;;;;1999.90;999.90;;;4.00;99.90;;;;;;5090988;28;20442;-67
2023/03/06 01:48:59;;;;;;;1999.90;999.90;;;3.90;99.90;;;;;;5090671;28;20500;-67
2023/03/06 01:51:30;;;;;;;1999.90;999.90;;;3.90;99.90;;;;;;5090769;28;20443;-66
2023/03/06 01:54:00;;;;;;;1999.90;999.90;;;3.90;99.90;;;;;;5089330;28;20454;-67
2023/03/06 01:56:29;;;;;;;1999.90;999.90;;;4.00;99.90;;;;;;5090947;28;20853;-67
2023/03/06 01:58:57;;;;;;;1999.90;999.90;;;3.90;99.90;;;;;;5090425;28;20489;-66
2023/03/06 02:01:24;;;;;;;1999.90;999.90;;;3.90;99.90;;;;;;5090527;28;20453;-66
2023/03/06 02:03:51;;;;;;;1999.90;999.90;;;3.90;99.90;;;;;;5089306;28;20466;-65
2023/03/06 02:06:20;;;;;;;1999.90;999.90;;;3.90;99.90;;;;;;5090682;28;20883;-66
2023/03/06 02:08:48;;;;;;;1999.90;999.90;;;3.90;99.90;;;;;;5090880;28;20476;-67
2023/03/06 02:11:17;;;;;;;1999.90;999.90;;;3.90;99.90;;;;;;5090417;28;20449;-66
2023/03/06 02:13:47;;;;;;;1999.90;999.90;;;3.90;99.90;;;;;;5089364;28;20462;-67
2023/03/06 02:16:14;;;;;;;1999.90;999.90;;;3.90;99.90;;;;;;5081591;28;20446;-66
2023/03/06 02:18:42;;;;;;;1999.90;999.90;;;3.80;99.90;;;;;;5070289;28;20843;-66
2023/03/06 02:21:11;;;;;;;1999.90;999.90;;;3.70;99.90;;;;;;5070230;28;20451;-67
2023/03/06 02:23:50;;;;;;;1999.90;999.90;;;3.70;99.90;;;;;;5068595;28;20463;-67
2023/03/06 02:26:20;;;;;;;1999.90;999.90;;;3.70;99.90;;;;;;5070034;28;20451;-67
2023/03/06 02:28:47;;;;;;;1999.90;999.90;;;3.70;99.90;;;;;;5069577;28;20509;-67
2023/03/06 02:31:21;;;;;;;1999.90;999.90;;;3.60;99.90;;;;;;5070001;28;20453;-67
2023/03/06 02:34:01;;;;;;;1999.90;999.90;;;3.70;99.90;;;;;;5068235;28;20943;-67
2023/03/06 02:36:29;;;;;;;1999.90;999.90;;;3.80;99.90;;;;;;5070384;28;20483;-67
2023/03/06 02:38:56;;;;;;;1999.90;999.90;;;3.70;99.90;;;;;;5068427;28;21204;-66
2023/03/06 02:41:24;;;;;;;1999.90;999.90;;;3.60;99.90;;;;;;5069634;28;20517;-67
2023/03/06 02:43:52;;;;;;;1999.90;999.90;;;3.50;99.90;;;;;;5067951;28;20998;-67
2023/03/06 02:46:19;;;;;;;1999.90;999.90;;;3.50;99.90;;;;;;5069766;28;20837;-67
2023/03/06 02:48:46;;;;;;;1999.90;999.90;;;3.60;99.90;;;;;;5069780;28;20435;-67
2023/03/06 02:51:13;;;;;;;1999.90;999.90;;;3.70;99.90;;;;;;5069490;28;20439;-67
2023/03/06 02:53:40;;;;;;;1999.90;999.90;;;3.70;99.90;;;;;;5068353;28;20474;-66
2023/03/06 02:56:07;;;;;;;1999.90;999.90;;;3.80;99.90;;;;;;5069196;28;20937;-66
2023/03/06 02:58:36;;;;;;;1999.90;999.90;;;3.70;99.90;;;;;;5069872;28;20483;-66
2023/03/06 03:01:03;;;;;;;1999.90;999.90;;;3.80;99.90;;;;;;5069129;28;20458;-66
2023/03/06 03:03:29;;;;;;;1999.90;999.90;;;3.70;99.90;;;;;;5067891;28;20808;-66
2023/03/06 03:05:56;;;;;;;1999.90;999.90;;;3.60;99.90;;;;;;5069422;28;20810;-66
2023/03/06 03:08:23;;;;;;;1999.90;999.90;;;3.60;99.90;;;;;;5069218;28;20832;-66
2023/03/06 03:10:50;;;;;;;1999.90;999.90;;;3.50;99.90;;;;;;5069431;28;20465;-67
2023/03/06 03:13:18;;;;;;;1999.90;999.90;;;3.40;99.90;;;;;;5068023;28;20467;-66
2023/03/06 03:15:46;;;;;;;1999.90;999.90;;;3.40;99.90;;;;;;5069641;28;20491;-67
2023/03/06 03:18:13;;;;;;;1999.90;999.90;;;3.40;99.90;;;;;;5069109;28;20501;-66
2023/03/06 03:20:42;;;;;;;1999.90;999.90;;;3.30;99.90;;;;;;5069300;28;20459;-67
2023/03/06 03:23:09;;;;;;;1999.90;999.90;;;3.30;99.90;;;;;;5067784;28;21104;-67
2023/03/06 03:25:35;;;;;;;1999.90;999.90;;;3.40;99.90;;;;;;5069329;28;20952;-67
2023/03/06 03:28:02;;;;;;;1999.90;999.90;;;3.30;99.90;;;;;;5069271;28;20443;-66
2023/03/06 03:30:29;;;;;;;1999.90;999.90;;;3.30;99.90;;;;;;5071021;28;20451;-66
2023/03/06 03:32:57;;;;;;;1999.90;999.90;;;3.40;99.90;;;;;;5088236;28;20446;-66
2023/03/06 03:35:24;;;;;;;1999.90;999.90;;;3.30;99.90;;;;;;5089127;28;20438;-66
2023/03/06 03:37:51;;;;;;;1999.90;999.90;;;3.40;99.90;;;;;;5089302;28;20446;-67
2023/03/06 03:40:18;;;;;;;1999.90;999.90;;;3.40;99.90;;;;;;5089361;28;20465;-67
2023/03/06 03:42:45;;;;;;;1999.90;999.90;;;3.30;99.90;;;;;;5088048;28;20438;-66
2023/03/06 03:45:12;;;;;;;1999.90;999.90;;;3.40;99.90;;;;;;5089235;28;20838;-68
2023/03/06 03:47:39;;;;;;;1999.90;999.90;;;3.40;99.90;;;;;;5089444;28;20506;-66
2023/03/06 03:50:09;;;;;;;1999.90;999.90;;;3.40;99.90;;;;;;5091253;28;20441;-66
2023/03/06 03:52:36;;;;;;;1999.90;999.90;;;3.40;99.90;;;;;;5091864;28;20474;-66
2023/03/06 03:55:03;;;;;;;1999.90;999.90;;;3.40;99.90;;;;;;5092874;28;20466;-67
2023/03/06 03:57:30;;;;;;;1999.90;999.90;;;3.40;99.90;;;;;;5092945;28;20446;-67
2023/03/06 03:59:57;;;;;;;1999.90;999.90;;;3.40;99.90;;;;;;5093009;28;20477;-67
2023/03/06 04:02:24;;;;;;;1999.90;999.90;;;3.40;99.90;;;;;;5091837;28;20442;-65
2023/03/06 04:04:51;;;;;;;1999.90;999.90;;;3.40;99.90;;;;;;5092763;28;20466;-67
2023/03/06 04:07:19;;;;;;;1999.90;999.90;;;3.40;99.90;;;;;;5093230;28;20450;-67
2023/03/06 04:09:46;;;;;;;1999.90;999.90;;;3.40;99.90;;;;;;5092833;28;20434;-67
2023/03/06 04:12:13;;;;;;;1999.90;999.90;;;3.30;99.90;;;;;;5092523;28;20874;-67
2023/03/06 04:14:40;;;;;;;1999.90;999.90;;;3.40;99.90;;;;;;5091890;28;20823;-66
2023/03/06 04:17:07;;;;;;;1999.90;999.90;;;3.30;99.90;;;;;;5092659;28;20936;-67
2023/03/06 04:19:33;;;;;;;1999.90;999.90;;;3.30;99.90;;;;;;5092610;28;20832;-67
2023/03/06 04:22:01;;;;;;;1999.90;999.90;;;3.40;99.90;;;;;;5092719;28;20442;-67
2023/03/06 04:24:29;;;;;;;1999.90;999.90;;;3.30;99.90;;;;;;5091315;28;20474;-67
2023/03/06 04:26:56;;;;;;;1999.90;999.90;;;3.30;99.90;;;;;;5092729;28;20469;-67
2023/03/06 04:29:22;;;;;;;1999.90;999.90;;;3.20;99.90;;;;;;5092713;28;20442;-67
2023/03/06 04:31:49;;;;;;;1999.90;999.90;;;3.30;99.90;;;;;;5092318;28;20465;-67
2023/03/06 04:34:16;;;;;;;1999.90;999.90;;;3.30;99.90;;;;;;5091231;28;20471;-67
2023/03/06 04:36:44;;;;;;;1999.90;999.90;;;3.30;99.90;;;;;;5092309;28;20886;-67
2023/03/06 04:39:12;;;;;;;1999.90;999.90;;;3.40;99.90;;;;;;5092535;28;20531;-67
2023/03/06 04:41:40;;;;;;;1999.90;999.90;;;3.40;99.90;;;;;;5092130;28;20446;-67
2023/03/06 04:44:07;;;;;;;1999.90;999.90;;;3.30;99.90;;;;;;5091386;28;20565;-67
2023/03/06 04:46:35;;;;;;;1999.90;999.90;;;3.30;99.90;;;;;;5092254;28;20446;-67
2023/03/06 04:49:02;;;;;;;1999.90;999.90;;;3.30;99.90;;;;;;5092351;28;20442;-66
2023/03/06 04:51:29;;;;;;;1999.90;999.90;;;3.40;99.90;;;;;;5092163;28;20460;-67
2023/03/06 04:53:56;;;;;;;1999.90;999.90;;;3.40;99.90;;;;;;5090340;28;20462;-66
2023/03/06 04:56:23;;;;;;;1999.90;999.90;;;3.40;99.90;;;;;;5091817;28;20450;-66
2023/03/06 04:58:51;;;;;;;1999.90;999.90;;;3.50;99.90;;;;;;5091389;28;20474;-67
2023/03/06 05:01:18;;;;;;;1999.90;999.90;;;3.40;99.90;;;;;;5090688;28;20453;-67
2023/03/06 05:03:44;;;;;;;1999.90;999.90;;;3.40;99.90;;;;;;5090013;28;20959;-66
2023/03/06 05:06:11;;;;;;;1999.90;999.90;;;3.50;99.90;;;;;;5091639;28;20817;-66
2023/03/06 05:08:38;;;;;;;1999.90;999.90;;;3.50;99.90;;;;;;5091402;28;20442;-66
2023/03/06 05:11:05;;;;;;;1999.90;999.90;;;3.50;99.90;;;;;;5091315;28;20445;-68
2023/03/06 05:13:32;;;;;;;1999.90;999.90;;;3.40;99.90;;;;;;5090047;28;20466;-68
2023/03/06 05:16:03;;;;;;;1999.90;999.90;;;3.40;99.90;;;;;;5091234;28;20446;-67
2023/03/06 05:18:30;;;;;;;1999.90;999.90;;;3.40;99.90;;;;;;5091237;28;20489;-67
2023/03/06 05:20:58;;;;;;;1999.90;999.90;;;3.40;99.90;;;;;;5091126;28;20541;-67
2023/03/06 05:23:25;;;;;;;1999.90;999.90;;;3.40;99.90;;;;;;5090058;28;20466;-66
2023/03/06 05:25:52;;;;;;;1999.90;999.90;;;3.40;99.90;;;;;;5090903;28;20442;-66
2023/03/06 05:28:19;;;;;;;1999.90;999.90;;;3.30;99.90;;;;;;5091010;28;20450;-67
2023/03/06 05:30:46;;;;;;;1999.90;999.90;;;3.20;99.90;;;;;;5091365;28;20847;-67
2023/03/06 05:33:14;;;;;;;1999.90;999.90;;;3.10;99.90;;;;;;5089613;28;20858;-67
2023/03/06 05:35:45;;;;;;;1999.90;999.90;;;3.10;99.90;;;;;;5091231;28;20454;-67
2023/03/06 05:38:12;;;;;;;1999.90;999.90;;;3.10;99.90;;;;;;5090665;28;20457;-67
2023/03/06 05:40:40;;;;;;;1999.90;999.90;;;3.10;99.90;;;;;;5090875;28;20452;-70
2023/03/06 05:43:07;;;;;;;1999.90;999.90;;;3.10;99.90;;;;;;5089559;28;20512;-69
2023/03/06 05:45:34;;;;;;;1999.90;999.90;;;3.00;99.90;;;;;;5090897;28;20462;-66
2023/03/06 05:48:01;;;;;;;1999.90;999.90;;;3.00;99.90;;;;;;5091864;28;20446;-67
2023/03/06 05:50:30;;;;;;;1999.90;999.90;;;3.00;99.90;;;;;;5090799;28;20442;-66
2023/03/06 05:52:56;;;;;;;1999.90;999.90;;;3.00;99.90;;;;;;5089781;28;20446;-66
2023/03/06 05:55:23;;;;;;;1999.90;999.90;;;3.00;99.90;;;;;;5090768;28;20477;-66
2023/03/06 05:57:51;;;;;;;1999.90;999.90;;;3.00;99.90;;;;;;5091018;28;20450;-67
2023/03/06 06:00:19;;;;;;;1999.90;999.90;;;3.10;99.90;;;;;;5090380;28;20490;-66
2023/03/06 06:02:46;;;;;;;1999.90;999.90;;;3.20;99.90;;;;;;5089397;28;20608;-67
2023/03/06 06:05:13;;;;;;;1999.90;999.90;;;3.10;99.90;;;;;;5089026;28;20979;-66
2023/03/06 06:07:41;;;;;;;1999.90;999.90;;;3.20;99.90;;;;;;5068944;28;20447;-66
2023/03/06 06:10:11;;;;;;;1999.90;999.90;;;3.20;99.90;;;;;;5084160;28;20476;-66
2023/03/06 06:12:38;;;;;;;1999.90;999.90;;;3.10;99.90;;;;;;5079018;28;21040;-66
2023/03/06 06:15:06;;;;;;;1999.90;999.90;;;3.20;99.90;;;;;;5088367;28;20485;-67
2023/03/06 06:17:33;;;;;;;1999.90;999.90;;;3.20;99.90;;;;;;5080274;28;20451;-67
2023/03/06 06:20:00;;;;;;;1999.90;999.90;;;3.20;99.90;;;;;;5069892;28;20475;-68
2023/03/06 06:22:27;;;;;;;1999.90;999.90;;;3.30;99.90;;;;;;5067764;28;20459;-67
2023/03/06 06:24:55;;;;;;;1999.90;999.90;;;3.30;99.90;;;;;;5069010;28;20842;-67
2023/03/06 06:27:21;;;;;;;1999.90;999.90;;;3.40;99.90;;;;;;5069608;28;20451;-68
2023/03/06 06:29:51;;;;;;;1999.90;999.90;;;3.40;99.90;;;;;;5069753;28;20443;-67
2023/03/06 06:32:17;;;;;;;1999.90;999.90;;;3.40;99.90;;;;;;5069431;28;20964;-67
2023/03/06 06:34:44;;;;;;;1999.90;999.90;;;3.50;99.90;;;;;;5068896;28;21034;-66
2023/03/06 06:37:11;;;;;;;1999.90;999.90;;;3.60;99.90;;;;;;5070026;28;20443;-66
2023/03/06 06:39:38;;;;;;;1999.90;999.90;;;3.60;99.90;;;;;;5069567;28;20478;-66
2023/03/06 06:42:07;;;;;;;1999.90;999.90;;;3.60;99.90;;;;;;5068947;28;20526;-66
2023/03/06 06:44:34;;;;;;;1999.90;999.90;;;3.60;99.90;;;;;;5067308;28;20544;-66
2023/03/06 06:47:01;;;;;;;1999.90;999.90;;;3.60;99.90;;;;;;5069500;28;20455;-66
2023/03/06 06:49:27;;;;;;;1999.90;999.90;;;3.70;99.90;;;;;;5069525;28;20462;-66
2023/03/06 06:51:54;;;;;;;1999.90;999.90;;;3.80;99.90;;;;;;5070290;28;20447;-66
2023/03/06 06:54:21;;;;;;;1999.90;999.90;;;3.80;99.90;;;;;;5068672;28;20470;-67
2023/03/06 06:56:48;;;;;;;1999.90;999.90;;;3.90;99.90;;;;;;5069535;28;20987;-67
2023/03/06 06:59:16;;;;;;;1999.90;999.90;;;4.00;99.90;;;;;;5069653;28;20479;-66
2023/03/06 07:01:43;;;;;;;1999.90;999.90;;;4.20;99.90;;;;;;5069075;28;20458;-67
2023/03/06 07:04:11;;;;;;;1999.90;999.90;;;4.20;99.90;;;;;;5068576;28;20887;-67
2023/03/06 07:06:38;;;;;;;1999.90;999.90;;;4.40;99.90;;;;;;5069582;28;20538;-67
2023/03/06 07:09:05;;;;;;;1999.90;999.90;;;4.40;99.90;;;;;;5069676;28;20450;-67
2023/03/06 07:11:32;;;;;;;1999.90;999.90;;;4.50;99.90;;;;;;5069495;28;20447;-67
2023/03/06 07:14:00;;;;;;;1999.90;999.90;;;4.50;99.90;;;;;;5067979;28;20475;-66
2023/03/06 07:16:28;;;;;;;1999.90;999.90;;;4.50;99.90;;;;;;5069506;28;20972;-67
2023/03/06 07:18:55;;;;;;;1999.90;999.90;;;4.60;99.90;;;;;;5072321;28;20486;-67
2023/03/06 07:21:22;;;;;;;1999.90;999.90;;;4.60;99.90;;;;;;5082318;28;20454;-68
2023/03/06 07:23:49;;;;;;;1999.90;999.90;;;4.60;99.90;;;;;;5084070;28;20458;-67
2023/03/06 07:26:16;;;;;;;1999.90;999.90;;;4.70;99.90;;;;;;5093187;28;20473;-66
2023/03/06 07:28:42;;;;;;;1999.90;999.90;;;4.70;99.90;;;;;;5093116;28;20893;-67
2023/03/06 07:31:10;;;;;;;1999.90;999.90;;;4.70;99.90;;;;;;5093440;28;20446;-67
2023/03/06 07:33:38;;;;;;;1999.90;999.90;;;4.80;99.90;;;;;;5092476;28;20470;-67
2023/03/06 07:36:09;;;;;;;1999.90;999.90;;;4.90;99.90;;;;;;5093602;28;20438;-67
2023/03/06 07:38:36;;;;;;;1999.90;999.90;;;5.00;99.90;;;;;;5093454;28;20446;-67
2023/03/06 07:41:03;;;;;;;1999.90;999.90;;;5.00;99.90;;;;;;5093168;28;20481;-67
2023/03/06 07:43:31;;;;;;;1999.90;999.90;;;5.20;99.90;;;;;;5091741;28;20470;-67
2023/03/06 07:45:59;;;;;;;1999.90;999.90;;;5.30;99.90;;;;;;5092263;28;20990;-67
2023/03/06 07:48:26;;;;;;;1999.90;999.90;;;5.40;99.90;;;;;;5093221;28;21112;-67
2023/03/06 07:51:00;;;;;;;1999.90;999.90;;;5.50;99.90;;;;;;5093345;28;20446;-66
2023/03/06 07:53:27;;;;;;;1999.90;999.90;;;5.40;99.90;;;;;;5092122;28;20545;-66
2023/03/06 07:55:54;;;;;;;1999.90;999.90;;;5.40;99.90;;;;;;5093331;28;20974;-67
2023/03/06 07:58:21;;;;;;;1999.90;999.90;;;5.50;99.90;;;;;;5093476;28;20446;-67
2023/03/06 08:00:48;;;;;;;1999.90;999.90;;;5.60;99.90;;;;;;5093443;28;20488;-66
2023/03/06 08:03:15;;;;;;;1999.90;999.90;;;5.60;99.90;;;;;;5092214;28;20484;-67
2023/03/06 08:05:43;;;;;;;1999.90;999.90;;;5.70;99.90;;;;;;5093301;28;20469;-67
2023/03/06 08:08:11;;;;;;;1999.90;999.90;;;5.70;99.90;;;;;;5093311;28;20450;-67
2023/03/06 08:10:41;;;;;;;1999.90;999.90;;;5.80;99.90;;;;;;5093198;28;20450;-66
2023/03/06 08:13:07;;;;;;;1999.90;999.90;;;5.90;99.90;;;;;;5092039;28;20481;-67
2023/03/06 08:15:37;;;;;;;1999.90;999.90;;;6.00;99.90;;;;;;5092836;28;20442;-67
2023/03/06 08:18:05;;;;;;;1999.90;999.90;;;6.00;99.90;;;;;;5092713;28;20450;-67
2023/03/06 08:20:32;;;;;;;1999.90;999.90;;;6.00;99.90;;;;;;5092561;28;20484;-67
2023/03/06 08:22:59;;;;;;;1999.90;999.90;;;6.10;99.90;;;;;;5091208;28;20461;-67
2023/03/06 08:25:29;;;;;;;1999.90;999.90;;;6.30;99.90;;;;;;5092694;28;20966;-67
2023/03/06 08:28:00;;;;;;;1999.90;999.90;;;6.10;99.90;;;;;;5092714;28;20446;-67
2023/03/06 08:30:27;;;;;;;1999.90;999.90;;;6.10;99.90;;;;;;5092592;28;20936;-67
2023/03/06 08:32:54;;;;;;;1999.90;999.90;;;6.20;99.90;;;;;;5091646;28;20446;-67
2023/03/06 08:35:23;;;;;;;1999.90;999.90;;;6.20;99.90;;;;;;5092431;28;20438;-67
2023/03/06 08:37:50;;;;;;;1999.90;999.90;;;6.30;99.90;;;;;;5092417;28;20454;-66
2023/03/06 08:40:22;;;;;;;1999.90;999.90;;;6.40;99.90;;;;;;5092696;28;20484;-67
2023/03/06 08:42:53;;;;;;;1999.90;999.90;;;6.30;99.90;;;;;;5091507;28;20528;-67
2023/03/06 08:45:20;;;;;;;1999.90;999.90;;;6.30;99.90;;;;;;5093566;28;20486;-67
2023/03/06 08:47:46;;;;;;;1999.90;999.90;;;6.10;99.90;;;;;;5093283;28;20449;-67
2023/03/06 08:50:15;;;;;;;1999.90;999.90;;;6.10;99.90;;;;;;5094474;28;20464;-67
2023/03/06 08:52:49;;;;;;;1999.90;999.90;;;6.00;99.90;;;;;;5093996;28;20541;-66
2023/03/06 08:55:16;;;;;;;1999.90;999.90;;;6.10;99.90;;;;;;5093088;28;20968;-65
2023/03/06 08:57:42;;;;;;;1999.90;999.90;;;6.30;99.90;;;;;;5097019;28;20430;-65
2023/03/06 09:00:12;;;;;;;1999.90;999.90;;;6.20;99.90;;;;;;5097943;28;20559;-65
2023/03/06 09:02:45;;;;;;;1999.90;999.90;;;6.40;99.90;;;;;;5092240;28;20446;-65
2023/03/06 09:05:18;;;;;;;1999.90;999.90;;;6.50;99.90;;;;;;5092651;28;20450;-64
2023/03/06 09:07:45;;;;;;;1999.90;999.90;;;6.60;99.90;;;;;;5092655;28;20530;-65
2023/03/06 09:10:14;;;;;;;1999.90;999.90;;;6.70;99.90;;;;;;5092855;28;20450;-65
2023/03/06 09:12:41;;;;;;;1999.90;999.90;;;6.60;99.90;;;;;;5091538;28;20450;-65
2023/03/06 09:15:11;;;;;;;1999.90;999.90;;;6.40;99.90;;;;;;5091985;28;20466;-65
2023/03/06 09:17:38;;;;;;;1999.90;999.90;;;6.40;99.90;;;;;;5092384;28;20478;-65
2023/03/06 09:20:07;;;;;;;1999.90;999.90;;;6.60;99.90;;;;;;5091709;28;20478;-66
2023/03/06 09:22:34;;;;;;;1999.90;999.90;;;6.80;99.90;;;;;;5090901;28;20442;-65
2023/03/06 09:25:01;;;;;;;1999.90;999.90;;;6.80;99.90;;;;;;5091530;28;20473;-66
2023/03/06 09:27:28;;;;;;;1999.90;999.90;;;6.70;99.90;;;;;;5091758;28;20473;-65
2023/03/06 09:29:54;;;;;;;1999.90;999.90;;;6.50;99.90;;;;;;5091383;28;20511;-63
2023/03/06 09:32:23;;;;;;;1999.90;999.90;;;6.30;99.90;;;;;;5091163;28;20450;-66
2023/03/06 09:34:50;;;;;;;1999.90;999.90;;;6.30;99.90;;;;;;5091169;28;20871;-66
2023/03/06 09:37:18;;;;;;;1999.90;999.90;;;6.20;99.90;;;;;;5091431;28;20448;-65
2023/03/06 09:39:45;;;;;;;1999.90;999.90;;;6.20;99.90;;;;;;5091276;28;20457;-66
2023/03/06 09:42:17;;;;;;;1999.90;999.90;;;6.20;99.90;;;;;;5091037;28;20465;-66
2023/03/06 09:44:50;;;;;;;1999.90;999.90;;;6.20;99.90;;;;;;5090740;28;20473;-65
2023/03/06 09:47:40;;;;;;;1999.90;999.90;;;6.10;99.90;;;;;;5091219;28;20453;-65
2023/03/06 09:50:22;;;;;;;1999.90;999.90;;;6.00;99.90;;;;;;5083505;28;20474;-66
2023/03/06 09:53:02;;;;;;;1999.90;999.90;;;5.90;99.90;;;;;;5090756;28;20452;-66
2023/03/06 09:55:32;;;;;;;1999.90;999.90;;;5.80;99.90;;;;;;5092131;28;20431;-66
2023/03/06 09:58:03;;;;;;;1999.90;999.90;;;5.70;99.90;;;;;;5091536;28;20445;-66
2023/03/06 10:00:34;;;;;;;1999.90;999.90;;;5.60;99.90;;;;;;5091419;28;20517;-66
2023/03/06 10:03:14;;;;;;;1999.90;999.90;;;5.60;99.90;;;;;;5090196;28;20936;-66
2023/03/06 10:05:44;;;;;;;1999.90;999.90;;;5.60;99.90;;;;;;5091290;28;20442;-66
2023/03/06 10:08:21;;;;;;;1999.90;999.90;;;5.70;99.90;;;;;;5091433;28;20449;-65
2023/03/06 10:10:53;;;;;;;1999.90;999.90;;;5.70;99.90;;;;;;5090620;28;20967;-66
2023/03/06 10:13:26;;;;;;;1999.90;999.90;;;5.60;99.90;;;;;;5089377;28;20819;-66
2023/03/06 10:15:58;;;;;;;1999.90;999.90;;;5.60;99.90;;;;;;5091031;28;20452;-66
2023/03/06 10:18:26;;;;;;;1999.90;999.90;;;5.60;99.90;;;;;;5091696;28;20507;-66
2023/03/06 10:20:58;;;;;;;1999.90;999.90;;;5.70;99.90;;;;;;5091154;28;20482;-65
2023/03/06 10:23:42;;;;;;;1999.90;999.90;;;5.70;99.90;;;;;;5089194;28;20474;-66
2023/03/06 10:26:13;;;;;;;1999.90;999.90;;;5.80;99.90;;;;;;5090168;28;20809;-66
2023/03/06 10:28:45;;;;;;;1999.90;999.90;;;5.80;99.90;;;;;;5090439;28;20811;-66
2023/03/06 10:31:16;;;;;;;1999.90;999.90;;;6.00;99.90;;;;;;5090479;28;20446;-66
2023/03/06 10:33:54;;;;;;;1999.90;999.90;;;6.00;99.90;;;;;;5089005;28;20939;-65
2023/03/06 10:36:22;;;;;;;1999.90;999.90;;;6.00;99.90;;;;;;5090244;28;20450;-66
2023/03/06 10:38:50;;;;;;;1999.90;999.90;;;6.10;99.90;;;;;;5090382;28;20446;-66
2023/03/06 10:41:23;;;;;;;1999.90;999.90;;;6.20;99.90;;;;;;5090405;28;20459;-66
2023/03/06 10:44:20;;;;;;;1999.90;999.90;;;6.30;99.90;;;;;;5089115;28;20473;-66
2023/03/06 10:46:50;;;;;;;1999.90;999.90;;;6.50;99.90;;;;;;5090056;28;20881;-66
2023/03/06 10:49:33;;;;;;;1999.90;999.90;;;6.50;99.90;;;;;;5090596;28;20530;-66
2023/03/06 10:52:04;;;;;;;1999.90;999.90;;;6.40;99.90;;;;;;5090062;28;20438;-66
2023/03/06 10:54:33;;;;;;;1999.90;999.90;;;6.50;99.90;;;;;;5089490;28;20934;-66
2023/03/06 10:57:18;;;;;;;1999.90;999.90;;;6.50;99.90;;;;;;5090227;28;20451;-66
2023/03/06 10:59:52;;;;;;;1999.90;999.90;;;6.40;99.90;;;;;;5091932;28;20452;-66
2023/03/06 11:02:26;;;;;;;1999.90;999.90;;;6.30;99.90;;;;;;5093864;28;20450;-65
2023/03/06 11:04:55;;;;;;;1999.90;999.90;;;6.40;99.90;;;;;;5094085;28;20513;-66
2023/03/06 11:07:24;;;;;;;1999.90;999.90;;;6.40;99.90;;;;;;5094259;28;20448;-66
2023/03/06 11:10:06;;;;;;;1999.90;999.90;;;6.50;99.90;;;;;;5093819;28;20434;-66
2023/03/06 11:12:35;;;;;;;1999.90;999.90;;;6.70;99.90;;;;;;5092980;28;20446;-66
2023/03/06 11:15:23;;;;;;;1999.90;999.90;;;6.80;99.90;;;;;;5093889;28;20828;-66
2023/03/06 11:17:57;;;;;;;1999.90;999.90;;;6.90;99.90;;;;;;5089275;28;20453;-66
2023/03/06 11:20:28;;;;;;;1999.90;999.90;;;7.10;99.90;;;;;;5094063;28;20515;-67
2023/03/06 11:22:59;;;;;;;1999.90;999.90;;;7.30;99.90;;;;;;5092759;28;20442;-66
2023/03/06 11:25:32;;;;;;;1999.90;999.90;;;7.50;99.90;;;;;;5093835;28;20442;-66
2023/03/06 11:28:03;;;;;;;1999.90;999.90;;;7.70;99.90;;;;;;5093935;28;20442;-67
2023/03/06 11:30:39;;;;;;;1999.90;999.90;;;7.80;99.90;;;;;;5093460;28;20960;-66
2023/03/06 11:33:14;;;;;;;1999.90;999.90;;;7.70;99.90;;;;;;5092420;28;20946;-66
2023/03/06 11:35:51;;;;;;;1999.90;999.90;;;7.70;99.90;;;;;;5093754;28;20524;-66
2023/03/06 11:38:22;;;;;;;1999.90;999.90;;;7.50;99.90;;;;;;5093556;28;20454;-66
2023/03/06 11:40:53;;;;;;;1999.90;999.90;;;7.30;99.90;;;;;;5093038;28;20851;-63
2023/03/06 11:43:25;;;;;;;1999.90;999.90;;;7.30;99.90;;;;;;5092432;28;20480;-67
2023/03/06 11:45:59;;;;;;;1999.90;999.90;;;7.20;99.90;;;;;;5093328;28;20453;-66
2023/03/06 11:48:30;;;;;;;1999.90;999.90;;;7.10;99.90;;;;;;5093801;28;20438;-66
2023/03/06 11:51:03;;;;;;;1999.90;999.90;;;7.20;99.90;;;;;;5093527;28;20445;-66
2023/03/06 11:53:33;;;;;;;1999.90;999.90;;;7.30;99.90;;;;;;5087352;28;20493;-65
2023/03/06 11:56:08;;;;;;;1999.90;999.90;;;7.30;99.90;;;;;;5091049;28;20939;-64
2023/03/06 11:59:11;;;;;;;1999.90;999.90;;;7.40;99.90;;;;;;5083419;28;20866;-65
2023/03/06 12:01:42;;;;;;;1999.90;999.90;;;7.50;99.90;;;;;;5091207;28;21074;-65
2023/03/06 12:04:41;;;;;;;1999.90;999.90;;;7.50;99.90;;;;;;5090272;28;20975;-66
2023/03/06 12:07:25;;;;;;;1999.90;999.90;;;7.50;99.90;;;;;;5091141;28;20499;-66
2023/03/06 12:09:57;;;;;;;1999.90;999.90;;;7.50;99.90;;;;;;5090946;28;20438;-66
2023/03/06 12:12:50;;;;;;;1999.90;999.90;;;7.40;99.90;;;;;;5090209;28;20441;-64
2023/03/06 12:15:27;;;;;;;1999.90;999.90;;;7.50;99.90;;;;;;5090966;28;20442;-66
2023/03/06 12:18:05;;;;;;;1999.90;999.90;;;7.60;99.90;;;;;;5090650;28;20457;-66